sensor_id;sensor_type;location;lat;lon;timestamp;temperature;humidity
7676;DHT22;3880;51.464;-2.566;2022-09-09T00:00:32;16.00;99.90
7676;DHT22;3880;51.464;-2.566;2022-09-09T00:03:04;16.10;99.90
7676;DHT22;3880;51.464;-2.566;2022-09-09T00:05:37;16.10;99.90
7676;DHT22;3880;51.464;-2.566;2022-09-09T00:08:08;16.10;99.90
7676;DHT22;3880;51.464;-2.566;2022-09-09T00:10:41;16.10;99.90
7676;DHT22;3880;51.464;-2.566;2022-09-09T00:13:16;16.10;99.90
7676;DHT22;3880;51.464;-2.566;2022-09-09T00:15:55;16.10;99.90
7676;DHT22;3880;51.464;-2.566;2022-09-09T00:18:27;16.10;99.90
7676;DHT22;3880;51.464;-2.566;2022-09-09T00:20:59;16.20;99.90
7676;DHT22;3880;51.464;-2.566;2022-09-09T00:23:30;16.20;99.90
7676;DHT22;3880;51.464;-2.566;2022-09-09T00:26:04;16.30;99.90
7676;DHT22;3880;51.464;-2.566;2022-09-09T00:28:39;16.30;99.90
7676;DHT22;3880;51.464;-2.566;2022-09-09T00:31:12;16.20;99.90
7676;DHT22;3880;51.464;-2.566;2022-09-09T00:33:40;16.20;99.90
7676;DHT22;3880;51.464;-2.566;2022-09-09T00:36:13;16.00;99.90
7676;DHT22;3880;51.464;-2.566;2022-09-09T00:38:43;16.10;99.90
7676;DHT22;3880;51.464;-2.566;2022-09-09T00:41:15;16.00;99.90
7676;DHT22;3880;51.464;-2.566;2022-09-09T00:43:55;15.90;99.90
7676;DHT22;3880;51.464;-2.566;2022-09-09T00:46:53;15.90;99.90
7676;DHT22;3880;51.464;-2.566;2022-09-09T00:49:32;15.80;99.90
7676;DHT22;3880;51.464;-2.566;2022-09-09T00:52:12;15.90;99.90
7676;DHT22;3880;51.464;-2.566;2022-09-09T00:54:50;15.90;99.90
7676;DHT22;3880;51.464;-2.566;2022-09-09T00:57:25;15.80;99.90
7676;DHT22;3880;51.464;-2.566;2022-09-09T01:00:15;15.80;99.90
7676;DHT22;3880;51.464;-2.566;2022-09-09T01:03:04;15.80;99.90
7676;DHT22;3880;51.464;-2.566;2022-09-09T01:05:39;15.70;99.90
7676;DHT22;3880;51.464;-2.566;2022-09-09T01:10:57;15.70;99.90
7676;DHT22;3880;51.464;-2.566;2022-09-09T01:13:26;15.70;99.90
7676;DHT22;3880;51.464;-2.566;2022-09-09T01:15:57;15.60;99.90
7676;DHT22;3880;51.464;-2.566;2022-09-09T01:18:28;15.70;99.90
7676;DHT22;3880;51.464;-2.566;2022-09-09T01:21:05;15.60;99.90
7676;DHT22;3880;51.464;-2.566;2022-09-09T01:23:48;15.50;99.90
7676;DHT22;3880;51.464;-2.566;2022-09-09T01:26:25;15.50;99.90
7676;DHT22;3880;51.464;-2.566;2022-09-09T01:28:54;15.50;99.90
7676;DHT22;3880;51.464;-2.566;2022-09-09T01:31:23;15.40;99.90
7676;DHT22;3880;51.464;-2.566;2022-09-09T01:33:53;15.40;99.90
7676;DHT22;3880;51.464;-2.566;2022-09-09T01:36:26;15.40;99.90
7676;DHT22;3880;51.464;-2.566;2022-09-09T01:38:56;15.40;99.90
7676;DHT22;3880;51.464;-2.566;2022-09-09T01:41:24;15.40;99.90
7676;DHT22;3880;51.464;-2.566;2022-09-09T01:43:54;15.40;99.90
7676;DHT22;3880;51.464;-2.566;2022-09-09T01:46:22;15.30;99.90
7676;DHT22;3880;51.464;-2.566;2022-09-09T01:48:50;15.30;99.90
7676;DHT22;3880;51.464;-2.566;2022-09-09T01:51:18;15.30;99.90
7676;DHT22;3880;51.464;-2.566;2022-09-09T01:53:45;15.20;99.90
7676;DHT22;3880;51.464;-2.566;2022-09-09T01:56:22;15.20;99.90
7676;DHT22;3880;51.464;-2.566;2022-09-09T01:59:04;15.20;99.90
7676;DHT22;3880;51.464;-2.566;2022-09-09T02:01:43;15.20;99.90
7676;DHT22;3880;51.464;-2.566;2022-09-09T02:04:22;15.20;99.90
7676;DHT22;3880;51.464;-2.566;2022-09-09T02:06:55;15.30;99.90
7676;DHT22;3880;51.464;-2.566;2022-09-09T02:09:24;15.30;99.90
7676;DHT22;3880;51.464;-2.566;2022-09-09T02:11:57;15.40;99.90
7676;DHT22;3880;51.464;-2.566;2022-09-09T02:14:33;15.50;99.90
7676;DHT22;3880;51.464;-2.566;2022-09-09T02:17:05;15.50;99.90
7676;DHT22;3880;51.464;-2.566;2022-09-09T02:19:36;15.50;99.90
7676;DHT22;3880;51.464;-2.566;2022-09-09T02:22:04;15.50;99.90
7676;DHT22;3880;51.464;-2.566;2022-09-09T02:24:35;15.40;99.90
7676;DHT22;3880;51.464;-2.566;2022-09-09T02:27:06;15.50;99.90
7676;DHT22;3880;51.464;-2.566;2022-09-09T02:29:39;15.40;99.90
7676;DHT22;3880;51.464;-2.566;2022-09-09T02:32:11;15.50;99.90
7676;DHT22;3880;51.464;-2.566;2022-09-09T02:34:43;15.50;99.90
7676;DHT22;3880;51.464;-2.566;2022-09-09T02:37:11;15.50;99.90
7676;DHT22;3880;51.464;-2.566;2022-09-09T02:39:39;15.50;99.90
7676;DHT22;3880;51.464;-2.566;2022-09-09T02:42:06;15.50;99.90
7676;DHT22;3880;51.464;-2.566;2022-09-09T02:44:35;15.50;99.90
7676;DHT22;3880;51.464;-2.566;2022-09-09T02:47:13;15.50;99.90
7676;DHT22;3880;51.464;-2.566;2022-09-09T02:49:50;15.50;99.90
7676;DHT22;3880;51.464;-2.566;2022-09-09T02:52:25;15.60;99.90
7676;DHT22;3880;51.464;-2.566;2022-09-09T02:54:59;15.60;99.90
7676;DHT22;3880;51.464;-2.566;2022-09-09T02:57:28;15.50;99.90
7676;DHT22;3880;51.464;-2.566;2022-09-09T02:59:58;15.60;99.90
7676;DHT22;3880;51.464;-2.566;2022-09-09T03:02:26;15.60;99.90
7676;DHT22;3880;51.464;-2.566;2022-09-09T03:04:53;15.70;99.90
7676;DHT22;3880;51.464;-2.566;2022-09-09T03:07:20;15.90;99.90
7676;DHT22;3880;51.464;-2.566;2022-09-09T03:09:47;15.80;99.90
7676;DHT22;3880;51.464;-2.566;2022-09-09T03:12:14;15.70;99.90
7676;DHT22;3880;51.464;-2.566;2022-09-09T03:14:41;15.70;99.90
7676;DHT22;3880;51.464;-2.566;2022-09-09T03:17:11;15.80;99.90
7676;DHT22;3880;51.464;-2.566;2022-09-09T03:19:39;15.80;99.90
7676;DHT22;3880;51.464;-2.566;2022-09-09T03:22:07;15.80;99.90
7676;DHT22;3880;51.464;-2.566;2022-09-09T03:24:35;15.80;99.90
7676;DHT22;3880;51.464;-2.566;2022-09-09T03:27:02;15.80;99.90
7676;DHT22;3880;51.464;-2.566;2022-09-09T03:29:29;15.70;99.90
7676;DHT22;3880;51.464;-2.566;2022-09-09T03:31:56;15.70;99.90
7676;DHT22;3880;51.464;-2.566;2022-09-09T03:34:25;15.70;99.90
7676;DHT22;3880;51.464;-2.566;2022-09-09T03:36:52;15.70;99.90
7676;DHT22;3880;51.464;-2.566;2022-09-09T03:39:19;15.70;99.90
7676;DHT22;3880;51.464;-2.566;2022-09-09T03:41:46;15.60;99.90
7676;DHT22;3880;51.464;-2.566;2022-09-09T03:44:14;15.70;99.90
7676;DHT22;3880;51.464;-2.566;2022-09-09T03:46:41;15.70;99.90
7676;DHT22;3880;51.464;-2.566;2022-09-09T03:49:08;15.70;99.90
7676;DHT22;3880;51.464;-2.566;2022-09-09T03:51:39;15.70;99.90
7676;DHT22;3880;51.464;-2.566;2022-09-09T03:54:06;15.70;99.90
7676;DHT22;3880;51.464;-2.566;2022-09-09T03:56:36;15.60;99.90
7676;DHT22;3880;51.464;-2.566;2022-09-09T03:59:03;15.60;99.90
7676;DHT22;3880;51.464;-2.566;2022-09-09T04:01:30;15.60;99.90
7676;DHT22;3880;51.464;-2.566;2022-09-09T04:03:57;15.60;99.90
7676;DHT22;3880;51.464;-2.566;2022-09-09T04:06:25;15.60;99.90
7676;DHT22;3880;51.464;-2.566;2022-09-09T04:08:53;15.60;99.90
7676;DHT22;3880;51.464;-2.566;2022-09-09T04:11:21;15.60;99.90
7676;DHT22;3880;51.464;-2.566;2022-09-09T04:13:48;15.70;99.90
7676;DHT22;3880;51.464;-2.566;2022-09-09T04:16:16;15.70;99.90
7676;DHT22;3880;51.464;-2.566;2022-09-09T04:18:43;15.70;99.90
7676;DHT22;3880;51.464;-2.566;2022-09-09T04:21:11;15.70;99.90
7676;DHT22;3880;51.464;-2.566;2022-09-09T04:23:38;15.70;99.90
7676;DHT22;3880;51.464;-2.566;2022-09-09T04:26:08;15.60;99.90
7676;DHT22;3880;51.464;-2.566;2022-09-09T04:28:36;15.60;99.90
7676;DHT22;3880;51.464;-2.566;2022-09-09T04:31:05;15.60;99.90
7676;DHT22;3880;51.464;-2.566;2022-09-09T04:33:32;15.50;99.90
7676;DHT22;3880;51.464;-2.566;2022-09-09T04:36:00;15.60;99.90
7676;DHT22;3880;51.464;-2.566;2022-09-09T04:38:27;15.60;99.90
7676;DHT22;3880;51.464;-2.566;2022-09-09T04:40:54;15.60;99.90
7676;DHT22;3880;51.464;-2.566;2022-09-09T04:43:23;15.60;99.90
7676;DHT22;3880;51.464;-2.566;2022-09-09T04:45:51;15.60;99.90
7676;DHT22;3880;51.464;-2.566;2022-09-09T04:48:19;15.60;99.90
7676;DHT22;3880;51.464;-2.566;2022-09-09T04:50:54;15.60;99.90
7676;DHT22;3880;51.464;-2.566;2022-09-09T04:53:21;15.60;99.90
7676;DHT22;3880;51.464;-2.566;2022-09-09T04:55:48;15.60;99.90
7676;DHT22;3880;51.464;-2.566;2022-09-09T04:58:15;15.60;99.90
7676;DHT22;3880;51.464;-2.566;2022-09-09T05:00:44;15.60;99.90
7676;DHT22;3880;51.464;-2.566;2022-09-09T05:03:11;15.60;99.90
7676;DHT22;3880;51.464;-2.566;2022-09-09T05:05:39;15.60;99.90
7676;DHT22;3880;51.464;-2.566;2022-09-09T05:08:07;15.60;99.90
7676;DHT22;3880;51.464;-2.566;2022-09-09T05:10:37;15.60;99.90
7676;DHT22;3880;51.464;-2.566;2022-09-09T05:13:04;15.50;99.90
7676;DHT22;3880;51.464;-2.566;2022-09-09T05:15:32;15.50;99.90
7676;DHT22;3880;51.464;-2.566;2022-09-09T05:18:01;15.50;99.90
7676;DHT22;3880;51.464;-2.566;2022-09-09T05:20:28;15.60;99.90
7676;DHT22;3880;51.464;-2.566;2022-09-09T05:22:55;15.60;99.90
7676;DHT22;3880;51.464;-2.566;2022-09-09T05:25:23;15.60;99.90
7676;DHT22;3880;51.464;-2.566;2022-09-09T05:27:51;15.60;99.90
7676;DHT22;3880;51.464;-2.566;2022-09-09T05:30:19;15.60;99.90
7676;DHT22;3880;51.464;-2.566;2022-09-09T05:32:47;15.50;99.90
7676;DHT22;3880;51.464;-2.566;2022-09-09T05:35:16;15.60;99.90
7676;DHT22;3880;51.464;-2.566;2022-09-09T05:37:44;15.60;99.90
7676;DHT22;3880;51.464;-2.566;2022-09-09T05:40:12;15.60;99.90
7676;DHT22;3880;51.464;-2.566;2022-09-09T05:42:39;15.50;99.90
7676;DHT22;3880;51.464;-2.566;2022-09-09T05:45:07;15.60;99.90
7676;DHT22;3880;51.464;-2.566;2022-09-09T05:47:34;15.60;99.90
7676;DHT22;3880;51.464;-2.566;2022-09-09T05:50:03;15.60;99.90
7676;DHT22;3880;51.464;-2.566;2022-09-09T05:52:32;15.60;99.90
7676;DHT22;3880;51.464;-2.566;2022-09-09T05:54:59;15.60;99.90
7676;DHT22;3880;51.464;-2.566;2022-09-09T05:57:26;15.60;99.90
7676;DHT22;3880;51.464;-2.566;2022-09-09T05:59:53;15.70;99.90
7676;DHT22;3880;51.464;-2.566;2022-09-09T06:02:20;15.60;99.90
7676;DHT22;3880;51.464;-2.566;2022-09-09T06:04:47;15.70;99.90
7676;DHT22;3880;51.464;-2.566;2022-09-09T06:07:14;15.70;99.90
7676;DHT22;3880;51.464;-2.566;2022-09-09T06:09:42;15.70;99.90
7676;DHT22;3880;51.464;-2.566;2022-09-09T06:12:10;15.70;99.90
7676;DHT22;3880;51.464;-2.566;2022-09-09T06:14:37;15.70;99.90
7676;DHT22;3880;51.464;-2.566;2022-09-09T06:17:04;15.70;99.90
7676;DHT22;3880;51.464;-2.566;2022-09-09T06:19:32;15.70;99.90
7676;DHT22;3880;51.464;-2.566;2022-09-09T06:21:59;15.70;99.90
7676;DHT22;3880;51.464;-2.566;2022-09-09T06:24:26;15.80;99.90
7676;DHT22;3880;51.464;-2.566;2022-09-09T06:26:56;15.90;99.90
7676;DHT22;3880;51.464;-2.566;2022-09-09T06:29:24;15.90;99.90
7676;DHT22;3880;51.464;-2.566;2022-09-09T06:31:51;15.90;99.90
7676;DHT22;3880;51.464;-2.566;2022-09-09T06:34:18;15.90;99.90
7676;DHT22;3880;51.464;-2.566;2022-09-09T06:36:45;15.90;99.90
7676;DHT22;3880;51.464;-2.566;2022-09-09T06:39:12;15.90;99.90
7676;DHT22;3880;51.464;-2.566;2022-09-09T06:41:41;15.90;99.90
7676;DHT22;3880;51.464;-2.566;2022-09-09T06:44:10;15.90;99.90
7676;DHT22;3880;51.464;-2.566;2022-09-09T06:46:38;16.00;99.90
7676;DHT22;3880;51.464;-2.566;2022-09-09T06:49:07;16.00;99.90
7676;DHT22;3880;51.464;-2.566;2022-09-09T06:51:35;16.10;99.90
7676;DHT22;3880;51.464;-2.566;2022-09-09T06:54:08;16.20;99.90
7676;DHT22;3880;51.464;-2.566;2022-09-09T06:56:36;16.20;99.90
7676;DHT22;3880;51.464;-2.566;2022-09-09T06:59:06;16.10;99.90
7676;DHT22;3880;51.464;-2.566;2022-09-09T07:01:37;16.10;99.90
7676;DHT22;3880;51.464;-2.566;2022-09-09T07:04:06;16.20;99.90
7676;DHT22;3880;51.464;-2.566;2022-09-09T07:06:36;16.10;99.90
7676;DHT22;3880;51.464;-2.566;2022-09-09T07:09:05;16.10;99.90
7676;DHT22;3880;51.464;-2.566;2022-09-09T07:11:36;16.00;99.90
7676;DHT22;3880;51.464;-2.566;2022-09-09T07:14:04;16.10;99.90
7676;DHT22;3880;51.464;-2.566;2022-09-09T07:16:31;16.10;99.90
7676;DHT22;3880;51.464;-2.566;2022-09-09T07:19:00;16.10;99.90
7676;DHT22;3880;51.464;-2.566;2022-09-09T07:21:29;16.20;99.90
7676;DHT22;3880;51.464;-2.566;2022-09-09T07:23:56;16.40;99.90
7676;DHT22;3880;51.464;-2.566;2022-09-09T07:26:25;16.60;99.90
7676;DHT22;3880;51.464;-2.566;2022-09-09T07:28:52;16.70;99.90
7676;DHT22;3880;51.464;-2.566;2022-09-09T07:31:22;16.80;99.90
7676;DHT22;3880;51.464;-2.566;2022-09-09T07:33:50;16.90;99.90
7676;DHT22;3880;51.464;-2.566;2022-09-09T07:36:21;17.10;99.90
7676;DHT22;3880;51.464;-2.566;2022-09-09T07:38:50;17.10;99.90
7676;DHT22;3880;51.464;-2.566;2022-09-09T07:41:20;17.00;99.90
7676;DHT22;3880;51.464;-2.566;2022-09-09T07:43:48;16.90;99.90
7676;DHT22;3880;51.464;-2.566;2022-09-09T07:46:18;16.80;99.90
7676;DHT22;3880;51.464;-2.566;2022-09-09T07:48:46;16.70;99.90
7676;DHT22;3880;51.464;-2.566;2022-09-09T07:51:20;16.70;99.90
7676;DHT22;3880;51.464;-2.566;2022-09-09T07:53:48;16.80;99.90
7676;DHT22;3880;51.464;-2.566;2022-09-09T07:56:18;16.80;99.90
7676;DHT22;3880;51.464;-2.566;2022-09-09T07:58:47;16.90;99.90
7676;DHT22;3880;51.464;-2.566;2022-09-09T08:01:16;17.20;99.90
7676;DHT22;3880;51.464;-2.566;2022-09-09T08:03:44;17.20;99.90
7676;DHT22;3880;51.464;-2.566;2022-09-09T08:06:12;17.40;99.90
7676;DHT22;3880;51.464;-2.566;2022-09-09T08:08:42;17.40;99.90
7676;DHT22;3880;51.464;-2.566;2022-09-09T08:11:10;17.50;99.90
7676;DHT22;3880;51.464;-2.566;2022-09-09T08:13:44;17.50;99.90
7676;DHT22;3880;51.464;-2.566;2022-09-09T08:16:14;17.60;99.90
7676;DHT22;3880;51.464;-2.566;2022-09-09T08:18:42;17.70;99.90
7676;DHT22;3880;51.464;-2.566;2022-09-09T08:21:11;18.10;99.90
7676;DHT22;3880;51.464;-2.566;2022-09-09T08:23:41;18.30;99.90
7676;DHT22;3880;51.464;-2.566;2022-09-09T08:26:11;18.30;99.90
7676;DHT22;3880;51.464;-2.566;2022-09-09T08:28:40;18.40;99.90
7676;DHT22;3880;51.464;-2.566;2022-09-09T08:31:12;18.30;99.90
7676;DHT22;3880;51.464;-2.566;2022-09-09T08:33:40;18.30;99.90
7676;DHT22;3880;51.464;-2.566;2022-09-09T08:36:09;18.20;99.90
7676;DHT22;3880;51.464;-2.566;2022-09-09T08:38:37;17.90;99.90
7676;DHT22;3880;51.464;-2.566;2022-09-09T08:41:34;17.70;99.90
7676;DHT22;3880;51.464;-2.566;2022-09-09T08:44:07;17.60;99.90
7676;DHT22;3880;51.464;-2.566;2022-09-09T08:46:45;17.50;99.90
7676;DHT22;3880;51.464;-2.566;2022-09-09T08:49:24;17.40;99.90
7676;DHT22;3880;51.464;-2.566;2022-09-09T08:51:58;17.40;99.90
7676;DHT22;3880;51.464;-2.566;2022-09-09T08:54:30;17.40;99.90
7676;DHT22;3880;51.464;-2.566;2022-09-09T08:57:00;17.40;99.90
7676;DHT22;3880;51.464;-2.566;2022-09-09T08:59:29;17.40;99.90
7676;DHT22;3880;51.464;-2.566;2022-09-09T09:02:05;17.50;99.90
7676;DHT22;3880;51.464;-2.566;2022-09-09T09:04:49;17.60;99.90
7676;DHT22;3880;51.464;-2.566;2022-09-09T09:07:24;17.80;99.90
7676;DHT22;3880;51.464;-2.566;2022-09-09T09:10:02;17.70;99.90
7676;DHT22;3880;51.464;-2.566;2022-09-09T09:12:38;17.80;99.90
7676;DHT22;3880;51.464;-2.566;2022-09-09T09:15:14;17.80;99.90
7676;DHT22;3880;51.464;-2.566;2022-09-09T09:17:43;17.70;99.90
7676;DHT22;3880;51.464;-2.566;2022-09-09T09:20:12;17.60;99.90
7676;DHT22;3880;51.464;-2.566;2022-09-09T09:22:47;17.60;99.90
7676;DHT22;3880;51.464;-2.566;2022-09-09T09:25:18;17.60;99.90
7676;DHT22;3880;51.464;-2.566;2022-09-09T09:27:52;17.50;99.90
7676;DHT22;3880;51.464;-2.566;2022-09-09T09:30:24;17.50;99.90
7676;DHT22;3880;51.464;-2.566;2022-09-09T09:32:54;17.40;99.90
7676;DHT22;3880;51.464;-2.566;2022-09-09T09:35:23;17.20;99.90
7676;DHT22;3880;51.464;-2.566;2022-09-09T09:37:50;17.10;99.90
7676;DHT22;3880;51.464;-2.566;2022-09-09T09:40:20;17.20;99.90
7676;DHT22;3880;51.464;-2.566;2022-09-09T09:42:51;17.20;99.90
7676;DHT22;3880;51.464;-2.566;2022-09-09T09:45:27;17.30;99.90
7676;DHT22;3880;51.464;-2.566;2022-09-09T09:48:01;17.40;99.90
7676;DHT22;3880;51.464;-2.566;2022-09-09T09:50:29;17.20;99.90
7676;DHT22;3880;51.464;-2.566;2022-09-09T09:52:59;17.20;99.90
7676;DHT22;3880;51.464;-2.566;2022-09-09T09:55:29;17.20;99.90
7676;DHT22;3880;51.464;-2.566;2022-09-09T09:58:03;17.20;99.90
7676;DHT22;3880;51.464;-2.566;2022-09-09T10:00:30;17.20;99.90
7676;DHT22;3880;51.464;-2.566;2022-09-09T10:02:59;17.30;99.90
7676;DHT22;3880;51.464;-2.566;2022-09-09T10:05:29;17.20;99.90
7676;DHT22;3880;51.464;-2.566;2022-09-09T10:08:04;17.20;99.90
7676;DHT22;3880;51.464;-2.566;2022-09-09T10:10:53;17.20;99.90
7676;DHT22;3880;51.464;-2.566;2022-09-09T10:13:27;17.20;99.90
7676;DHT22;3880;51.464;-2.566;2022-09-09T10:16:07;17.30;99.90
7676;DHT22;3880;51.464;-2.566;2022-09-09T10:18:52;17.40;99.90
7676;DHT22;3880;51.464;-2.566;2022-09-09T10:21:40;17.40;99.90
7676;DHT22;3880;51.464;-2.566;2022-09-09T10:27:15;17.50;99.90
7676;DHT22;3880;51.464;-2.566;2022-09-09T10:29:58;17.60;99.90
7676;DHT22;3880;51.464;-2.566;2022-09-09T10:32:47;17.70;99.90
7676;DHT22;3880;51.464;-2.566;2022-09-09T10:35:29;17.80;99.90
7676;DHT22;3880;51.464;-2.566;2022-09-09T10:38:17;17.80;99.90
7676;DHT22;3880;51.464;-2.566;2022-09-09T10:41:09;17.70;99.90
7676;DHT22;3880;51.464;-2.566;2022-09-09T10:43:58;17.80;99.90
7676;DHT22;3880;51.464;-2.566;2022-09-09T10:46:34;18.00;99.90
7676;DHT22;3880;51.464;-2.566;2022-09-09T10:49:15;18.20;99.90
7676;DHT22;3880;51.464;-2.566;2022-09-09T10:51:53;18.10;99.90
7676;DHT22;3880;51.464;-2.566;2022-09-09T10:54:37;17.90;99.90
7676;DHT22;3880;51.464;-2.566;2022-09-09T10:57:13;18.00;99.90
7676;DHT22;3880;51.464;-2.566;2022-09-09T10:59:46;18.20;99.90
7676;DHT22;3880;51.464;-2.566;2022-09-09T11:02:19;18.40;99.90
7676;DHT22;3880;51.464;-2.566;2022-09-09T11:04:51;18.80;99.90
7676;DHT22;3880;51.464;-2.566;2022-09-09T11:07:28;19.20;99.90
7676;DHT22;3880;51.464;-2.566;2022-09-09T11:10:01;19.90;99.90
7676;DHT22;3880;51.464;-2.566;2022-09-09T11:12:30;20.50;99.90
7676;DHT22;3880;51.464;-2.566;2022-09-09T11:15:05;21.60;99.90
7676;DHT22;3880;51.464;-2.566;2022-09-09T11:17:42;22.70;99.90
7676;DHT22;3880;51.464;-2.566;2022-09-09T11:20:12;22.60;99.90
7676;DHT22;3880;51.464;-2.566;2022-09-09T11:22:45;22.50;99.90
7676;DHT22;3880;51.464;-2.566;2022-09-09T11:25:17;22.80;99.90
7676;DHT22;3880;51.464;-2.566;2022-09-09T11:28:08;22.70;99.90
7676;DHT22;3880;51.464;-2.566;2022-09-09T11:30:49;22.70;99.90
7676;DHT22;3880;51.464;-2.566;2022-09-09T11:33:31;22.60;99.90
7676;DHT22;3880;51.464;-2.566;2022-09-09T11:36:12;22.80;99.90
7676;DHT22;3880;51.464;-2.566;2022-09-09T11:38:45;22.80;99.90
7676;DHT22;3880;51.464;-2.566;2022-09-09T11:41:13;22.90;99.90
7676;DHT22;3880;51.464;-2.566;2022-09-09T11:43:42;22.40;99.90
7676;DHT22;3880;51.464;-2.566;2022-09-09T11:46:13;22.60;99.90
7676;DHT22;3880;51.464;-2.566;2022-09-09T11:48:44;22.70;99.90
7676;DHT22;3880;51.464;-2.566;2022-09-09T11:51:12;22.30;99.90
7676;DHT22;3880;51.464;-2.566;2022-09-09T11:53:51;21.90;99.90
7676;DHT22;3880;51.464;-2.566;2022-09-09T11:56:27;21.50;99.90
7676;DHT22;3880;51.464;-2.566;2022-09-09T11:58:57;21.20;99.90
7676;DHT22;3880;51.464;-2.566;2022-09-09T12:01:39;21.00;99.90
7676;DHT22;3880;51.464;-2.566;2022-09-09T12:04:21;20.80;99.90
7676;DHT22;3880;51.464;-2.566;2022-09-09T12:06:57;20.60;99.90
7676;DHT22;3880;51.464;-2.566;2022-09-09T12:09:43;20.30;99.90
7676;DHT22;3880;51.464;-2.566;2022-09-09T12:12:29;20.30;99.90
7676;DHT22;3880;51.464;-2.566;2022-09-09T12:15:15;21.00;99.90
7676;DHT22;3880;51.464;-2.566;2022-09-09T12:17:47;22.80;99.90
7676;DHT22;3880;51.464;-2.566;2022-09-09T12:20:18;24.20;99.90
7676;DHT22;3880;51.464;-2.566;2022-09-09T12:23:03;23.50;99.90
7676;DHT22;3880;51.464;-2.566;2022-09-09T12:25:52;22.70;99.90
7676;DHT22;3880;51.464;-2.566;2022-09-09T12:28:22;22.60;99.90
7676;DHT22;3880;51.464;-2.566;2022-09-09T12:30:58;22.30;99.90
7676;DHT22;3880;51.464;-2.566;2022-09-09T12:33:33;22.00;99.90
7676;DHT22;3880;51.464;-2.566;2022-09-09T12:36:04;22.00;99.90
7676;DHT22;3880;51.464;-2.566;2022-09-09T12:38:35;21.60;99.90
7676;DHT22;3880;51.464;-2.566;2022-09-09T12:41:03;21.70;99.90
7676;DHT22;3880;51.464;-2.566;2022-09-09T12:43:30;22.30;99.90
7676;DHT22;3880;51.464;-2.566;2022-09-09T12:46:00;22.20;99.90
7676;DHT22;3880;51.464;-2.566;2022-09-09T12:48:34;21.90;99.90
7676;DHT22;3880;51.464;-2.566;2022-09-09T12:51:05;21.40;99.90
7676;DHT22;3880;51.464;-2.566;2022-09-09T12:53:35;20.90;99.90
7676;DHT22;3880;51.464;-2.566;2022-09-09T12:56:05;20.50;99.90
7676;DHT22;3880;51.464;-2.566;2022-09-09T12:58:35;20.20;99.90
7676;DHT22;3880;51.464;-2.566;2022-09-09T13:01:04;19.90;99.90
7676;DHT22;3880;51.464;-2.566;2022-09-09T13:03:33;19.90;99.90
7676;DHT22;3880;51.464;-2.566;2022-09-09T13:06:13;20.00;99.90
7676;DHT22;3880;51.464;-2.566;2022-09-09T13:08:40;19.70;99.90
7676;DHT22;3880;51.464;-2.566;2022-09-09T13:11:12;19.50;99.90
7676;DHT22;3880;51.464;-2.566;2022-09-09T13:13:42;19.30;99.90
7676;DHT22;3880;51.464;-2.566;2022-09-09T13:16:20;19.20;99.90
7676;DHT22;3880;51.464;-2.566;2022-09-09T13:18:47;19.10;99.90
7676;DHT22;3880;51.464;-2.566;2022-09-09T13:21:16;19.40;99.90
7676;DHT22;3880;51.464;-2.566;2022-09-09T13:23:49;19.60;99.90
7676;DHT22;3880;51.464;-2.566;2022-09-09T13:26:23;20.20;99.90
7676;DHT22;3880;51.464;-2.566;2022-09-09T13:28:51;21.10;99.90
7676;DHT22;3880;51.464;-2.566;2022-09-09T13:31:21;22.40;99.90
7676;DHT22;3880;51.464;-2.566;2022-09-09T13:33:49;23.90;99.90
7676;DHT22;3880;51.464;-2.566;2022-09-09T13:36:28;25.50;99.90
7676;DHT22;3880;51.464;-2.566;2022-09-09T13:38:57;25.50;99.90
7676;DHT22;3880;51.464;-2.566;2022-09-09T13:41:29;25.80;99.90
7676;DHT22;3880;51.464;-2.566;2022-09-09T13:43:58;26.30;99.90
7676;DHT22;3880;51.464;-2.566;2022-09-09T13:46:30;26.70;99.90
7676;DHT22;3880;51.464;-2.566;2022-09-09T13:48:59;26.10;99.90
7676;DHT22;3880;51.464;-2.566;2022-09-09T13:51:34;25.40;99.90
7676;DHT22;3880;51.464;-2.566;2022-09-09T13:54:03;25.40;99.90
7676;DHT22;3880;51.464;-2.566;2022-09-09T13:56:31;24.60;99.90
7676;DHT22;3880;51.464;-2.566;2022-09-09T13:58:58;24.00;99.90
7676;DHT22;3880;51.464;-2.566;2022-09-09T14:01:25;24.00;99.90
7676;DHT22;3880;51.464;-2.566;2022-09-09T14:03:53;24.80;99.90
7676;DHT22;3880;51.464;-2.566;2022-09-09T14:06:20;25.60;99.90
7676;DHT22;3880;51.464;-2.566;2022-09-09T14:08:49;25.90;99.90
7676;DHT22;3880;51.464;-2.566;2022-09-09T14:11:17;25.40;99.90
7676;DHT22;3880;51.464;-2.566;2022-09-09T14:13:45;24.70;99.90
7676;DHT22;3880;51.464;-2.566;2022-09-09T14:16:12;23.80;99.90
7676;DHT22;3880;51.464;-2.566;2022-09-09T14:18:39;23.70;99.90
7676;DHT22;3880;51.464;-2.566;2022-09-09T14:21:06;23.10;99.90
7676;DHT22;3880;51.464;-2.566;2022-09-09T14:23:34;23.00;99.90
7676;DHT22;3880;51.464;-2.566;2022-09-09T14:26:03;22.90;99.90
7676;DHT22;3880;51.464;-2.566;2022-09-09T14:28:30;22.40;99.90
7676;DHT22;3880;51.464;-2.566;2022-09-09T14:30:59;22.30;99.90
7676;DHT22;3880;51.464;-2.566;2022-09-09T14:33:27;22.00;99.90
7676;DHT22;3880;51.464;-2.566;2022-09-09T14:35:56;22.20;99.90
7676;DHT22;3880;51.464;-2.566;2022-09-09T14:38:23;22.40;99.90
7676;DHT22;3880;51.464;-2.566;2022-09-09T14:40:51;22.50;99.90
7676;DHT22;3880;51.464;-2.566;2022-09-09T14:43:19;22.80;99.90
7676;DHT22;3880;51.464;-2.566;2022-09-09T14:45:46;22.90;99.90
7676;DHT22;3880;51.464;-2.566;2022-09-09T14:48:15;22.90;99.90
7676;DHT22;3880;51.464;-2.566;2022-09-09T14:50:42;22.60;99.90
7676;DHT22;3880;51.464;-2.566;2022-09-09T14:53:10;23.40;99.90
7676;DHT22;3880;51.464;-2.566;2022-09-09T14:55:37;24.30;99.90
7676;DHT22;3880;51.464;-2.566;2022-09-09T14:58:05;24.70;99.90
7676;DHT22;3880;51.464;-2.566;2022-09-09T15:00:34;25.00;99.90
7676;DHT22;3880;51.464;-2.566;2022-09-09T15:03:01;24.70;99.90
7676;DHT22;3880;51.464;-2.566;2022-09-09T15:05:28;24.00;99.90
7676;DHT22;3880;51.464;-2.566;2022-09-09T15:07:57;24.10;99.90
7676;DHT22;3880;51.464;-2.566;2022-09-09T15:10:25;24.20;99.90
7676;DHT22;3880;51.464;-2.566;2022-09-09T15:12:52;24.70;99.90
7676;DHT22;3880;51.464;-2.566;2022-09-09T15:15:19;25.40;99.90
7676;DHT22;3880;51.464;-2.566;2022-09-09T15:17:48;26.50;99.90
7676;DHT22;3880;51.464;-2.566;2022-09-09T15:20:15;27.40;99.90
7676;DHT22;3880;51.464;-2.566;2022-09-09T15:22:42;27.90;99.90
7676;DHT22;3880;51.464;-2.566;2022-09-09T15:25:09;27.10;99.90
7676;DHT22;3880;51.464;-2.566;2022-09-09T15:27:38;26.90;99.90
7676;DHT22;3880;51.464;-2.566;2022-09-09T15:30:07;26.80;99.90
7676;DHT22;3880;51.464;-2.566;2022-09-09T15:32:34;26.90;99.90
7676;DHT22;3880;51.464;-2.566;2022-09-09T15:35:03;26.40;99.90
7676;DHT22;3880;51.464;-2.566;2022-09-09T15:37:30;25.40;99.90
7676;DHT22;3880;51.464;-2.566;2022-09-09T15:39:57;26.20;99.90
7676;DHT22;3880;51.464;-2.566;2022-09-09T15:42:27;26.60;99.90
7676;DHT22;3880;51.464;-2.566;2022-09-09T15:44:55;26.70;99.90
7676;DHT22;3880;51.464;-2.566;2022-09-09T15:47:22;26.90;99.90
7676;DHT22;3880;51.464;-2.566;2022-09-09T15:49:49;26.90;99.90
7676;DHT22;3880;51.464;-2.566;2022-09-09T15:52:18;26.60;99.90
7676;DHT22;3880;51.464;-2.566;2022-09-09T15:54:45;26.40;99.90
7676;DHT22;3880;51.464;-2.566;2022-09-09T15:57:13;26.50;99.90
7676;DHT22;3880;51.464;-2.566;2022-09-09T15:59:40;26.50;99.90
7676;DHT22;3880;51.464;-2.566;2022-09-09T16:02:08;26.60;99.90
7676;DHT22;3880;51.464;-2.566;2022-09-09T16:04:36;25.50;99.90
7676;DHT22;3880;51.464;-2.566;2022-09-09T16:07:04;24.50;99.90
7676;DHT22;3880;51.464;-2.566;2022-09-09T16:09:34;23.70;99.90
7676;DHT22;3880;51.464;-2.566;2022-09-09T16:12:03;23.40;99.90
7676;DHT22;3880;51.464;-2.566;2022-09-09T16:14:32;23.10;99.90